createdAt,value
2023-02-02T00:00:47.044Z,9.55
2023-02-02T00:02:49.089Z,10.13
2023-02-02T00:04:51.092Z,13.57
2023-02-02T00:06:54.369Z,13.25
2023-02-02T00:08:58.146Z,14.48
2023-02-02T00:11:00.101Z,12.10
2023-02-02T00:13:02.095Z,16.80
2023-02-02T00:15:04.502Z,12.23
2023-02-02T00:17:11.094Z,11.18
2023-02-02T00:19:17.112Z,11.48
2023-02-02T00:21:19.129Z,19.00
2023-02-02T00:23:21.194Z,11.48
2023-02-02T00:25:23.673Z,13.85
2023-02-02T00:27:25.940Z,10.32
2023-02-02T00:29:30.622Z,8.23
2023-02-02T00:31:32.758Z,8.95
2023-02-02T00:33:34.939Z,13.98
2023-02-02T00:35:40.087Z,11.63
2023-02-02T00:37:42.559Z,13.52
2023-02-02T00:39:44.521Z,15.57
2023-02-02T00:41:46.908Z,6.78
2023-02-02T00:44:08.760Z,20.88
2023-02-02T00:46:17.155Z,16.17
2023-02-02T00:48:19.114Z,13.25
2023-02-02T00:50:21.662Z,15.18
2023-02-02T00:52:23.654Z,8.73
2023-02-02T00:54:25.561Z,16.75
2023-02-02T00:56:27.682Z,14.75
2023-02-02T00:58:29.568Z,10.85
2023-02-02T01:00:31.437Z,6.93
2023-02-02T01:02:35.504Z,10.40
2023-02-02T01:04:37.499Z,9.70
2023-02-02T01:06:39.467Z,10.85
2023-02-02T01:08:41.369Z,11.30
2023-02-02T01:10:43.233Z,12.23
2023-02-02T01:12:45.663Z,9.88
2023-02-02T01:14:47.658Z,12.75
2023-02-02T01:16:49.589Z,11.80
2023-02-02T01:18:52.394Z,9.43
2023-02-02T01:21:00.681Z,11.90
2023-02-02T01:23:02.679Z,11.85
2023-02-02T01:25:05.768Z,5.15
2023-02-02T01:27:07.788Z,10.85
2023-02-02T01:29:09.749Z,5.03
2023-02-02T01:31:14.676Z,8.60
2023-02-02T01:33:17.820Z,6.72
2023-02-02T01:35:19.775Z,13.63
2023-02-02T01:37:22.384Z,12.10
2023-02-02T01:39:24.971Z,15.00
2023-02-02T01:41:29.054Z,9.30
2023-02-02T01:43:40.541Z,12.45
2023-02-02T01:45:42.540Z,9.10
2023-02-02T01:47:50.628Z,7.30
2023-02-02T01:49:55.097Z,11.27
2023-02-02T01:52:00.215Z,5.97
2023-02-02T01:54:03.394Z,11.27
2023-02-02T01:56:07.209Z,10.52
2023-02-02T01:58:14.789Z,10.57
2023-02-02T02:00:18.967Z,15.07
2023-02-02T02:02:21.383Z,10.30
2023-02-02T02:04:26.533Z,9.13
2023-02-02T02:06:29.231Z,16.65
2023-02-02T02:08:35.968Z,10.57
2023-02-02T02:10:37.970Z,10.32
2023-02-02T02:12:39.956Z,8.10
2023-02-02T02:14:47.226Z,5.53
2023-02-02T02:16:53.675Z,13.35
2023-02-02T02:19:04.907Z,11.15
2023-02-02T02:21:16.115Z,5.93
2023-02-02T02:23:27.298Z,15.00
2023-02-02T02:25:45.911Z,9.65
2023-02-02T02:27:52.432Z,9.23
2023-02-02T02:30:06.138Z,10.32
2023-02-02T02:32:12.527Z,9.50
2023-02-02T02:34:20.952Z,13.23
2023-02-02T02:36:29.212Z,16.10
2023-02-02T02:38:41.153Z,8.40
2023-02-02T02:40:49.981Z,8.63
2023-02-02T02:42:59.547Z,9.07
2023-02-02T02:45:04.163Z,16.13
2023-02-02T02:47:06.466Z,12.48
2023-02-02T02:49:11.251Z,7.93
2023-02-02T02:51:19.476Z,7.75
2023-02-02T02:53:23.847Z,8.63
2023-02-02T02:55:33.961Z,10.65
2023-02-02T02:57:40.392Z,10.63
2023-02-02T02:59:48.515Z,12.05
2023-02-02T03:01:59.852Z,10.27
2023-02-02T03:04:12.856Z,7.15
2023-02-02T03:06:21.139Z,11.80
2023-02-02T03:08:29.343Z,10.02
2023-02-02T03:10:32.943Z,10.75
2023-02-02T03:12:43.224Z,9.40
2023-02-02T03:14:45.205Z,18.17
2023-02-02T03:16:47.287Z,11.23
2023-02-02T03:18:49.254Z,8.38
2023-02-02T03:20:51.209Z,9.63
2023-02-02T03:22:53.151Z,12.90
2023-02-02T03:24:55.156Z,7.63
2023-02-02T03:26:57.319Z,9.57
2023-02-02T03:29:00.620Z,6.97
2023-02-02T03:31:02.965Z,8.88
2023-02-02T03:33:06.185Z,7.75
2023-02-02T03:35:09.466Z,11.30
2023-02-02T03:37:11.414Z,12.63
2023-02-02T03:39:13.433Z,14.05
2023-02-02T03:41:15.397Z,10.02
2023-02-02T03:43:22.585Z,12.32
2023-02-02T03:45:27.899Z,9.38
2023-02-02T03:47:30.445Z,11.15
2023-02-02T03:49:32.433Z,10.65
2023-02-02T03:51:34.325Z,7.53
2023-02-02T03:53:36.281Z,5.50
2023-02-02T03:55:40.647Z,8.88
2023-02-02T03:57:42.647Z,9.75
2023-02-02T03:59:44.689Z,6.60
2023-02-02T04:01:46.653Z,6.45
2023-02-02T04:03:50.593Z,10.63
2023-02-02T04:05:52.491Z,9.65
2023-02-02T04:07:54.443Z,14.38
2023-02-02T04:09:56.404Z,8.18
2023-02-02T04:11:58.389Z,7.88
2023-02-02T04:14:00.316Z,10.25
2023-02-02T04:16:02.409Z,6.32
2023-02-02T04:18:04.490Z,7.75
2023-02-02T04:20:07.262Z,8.23
2023-02-02T04:22:09.273Z,6.45
2023-02-02T04:24:12.647Z,6.60
2023-02-02T04:26:14.534Z,8.80
2023-02-02T04:28:16.592Z,8.98
2023-02-02T04:30:20.127Z,10.10
2023-02-02T04:32:22.062Z,5.25
2023-02-02T04:34:24.024Z,11.10
2023-02-02T04:36:26.045Z,7.70
2023-02-02T04:38:28.292Z,7.90
2023-02-02T04:40:30.195Z,10.68
2023-02-02T04:42:32.918Z,7.05
2023-02-02T04:44:35.232Z,11.63
2023-02-02T04:46:37.164Z,8.13
2023-02-02T04:48:41.078Z,10.15
2023-02-02T04:50:43.024Z,14.23
2023-02-02T04:52:45.026Z,11.05
2023-02-02T04:54:47.044Z,8.60
2023-02-02T04:56:49.052Z,9.10
2023-02-02T04:58:54.242Z,11.18
2023-02-02T05:00:56.293Z,7.03
2023-02-02T05:02:58.266Z,15.85
2023-02-02T05:05:00.259Z,13.63
2023-02-02T05:07:02.240Z,12.82
2023-02-02T05:09:04.251Z,9.55
2023-02-02T05:11:08.292Z,6.80
2023-02-02T05:13:10.272Z,9.35
2023-02-02T05:15:12.251Z,9.07
2023-02-02T05:17:14.262Z,9.15
2023-02-02T05:19:17.105Z,11.75
2023-02-02T05:21:19.409Z,8.50
2023-02-02T05:23:21.588Z,7.90
2023-02-02T05:25:23.887Z,6.72
2023-02-02T05:27:26.047Z,6.70
2023-02-02T05:29:28.867Z,15.88
2023-02-02T05:31:32.251Z,10.65
2023-02-02T05:33:34.318Z,8.63
2023-02-02T05:35:36.247Z,9.25
2023-02-02T05:37:38.198Z,10.88
2023-02-02T05:39:40.139Z,12.23
2023-02-02T05:41:42.311Z,7.57
2023-02-02T05:43:44.229Z,12.02
2023-02-02T05:45:46.402Z,10.93
2023-02-02T05:47:48.547Z,11.38
2023-02-02T05:49:50.512Z,8.07
2023-02-02T05:51:55.467Z,9.05
2023-02-02T05:53:59.939Z,10.18
2023-02-02T05:56:02.987Z,6.85
2023-02-02T05:58:04.951Z,5.80
2023-02-02T06:00:07.899Z,9.35
2023-02-02T06:02:09.823Z,9.30
2023-02-02T06:04:11.960Z,8.80
2023-02-02T06:06:14.042Z,8.25
2023-02-02T06:08:16.323Z,5.30
2023-02-02T06:10:18.359Z,9.55
2023-02-02T06:12:20.330Z,15.18
2023-02-02T06:14:22.354Z,10.98
2023-02-02T06:16:24.711Z,9.30
2023-02-02T06:18:26.701Z,12.73
2023-02-02T06:20:28.688Z,8.52
2023-02-02T06:22:32.481Z,12.70
2023-02-02T06:24:34.414Z,5.53
2023-02-02T06:26:36.962Z,13.13
2023-02-02T06:28:38.970Z,7.82
2023-02-02T06:30:43.166Z,12.63
2023-02-02T06:32:46.047Z,7.05
2023-02-02T06:34:47.989Z,7.65
2023-02-02T06:36:49.915Z,8.73
2023-02-02T06:38:53.510Z,10.88
2023-02-02T06:40:55.566Z,10.60
2023-02-02T06:42:59.228Z,9.52
2023-02-02T06:45:01.134Z,12.68
2023-02-02T06:47:03.088Z,9.75
2023-02-02T06:49:05.038Z,4.50
2023-02-02T06:51:07.523Z,10.57
2023-02-02T06:53:09.539Z,9.02
2023-02-02T06:55:11.704Z,6.78
2023-02-02T06:57:13.689Z,6.95
2023-02-02T06:59:15.646Z,9.80
2023-02-02T07:01:17.753Z,5.18
2023-02-02T07:03:21.599Z,10.55
2023-02-02T07:05:25.249Z,7.90
2023-02-02T07:07:27.683Z,6.80
2023-02-02T07:09:33.672Z,3.75
2023-02-02T07:11:38.437Z,6.45
2023-02-02T07:13:42.993Z,11.85
2023-02-02T07:15:44.979Z,10.20
2023-02-02T07:17:46.927Z,7.32
2023-02-02T07:19:48.890Z,8.18
2023-02-02T07:21:50.876Z,8.63
2023-02-02T07:23:52.883Z,10.70
2023-02-02T07:26:01.063Z,6.70
2023-02-02T07:28:03.173Z,13.68
2023-02-02T07:30:05.895Z,5.90
2023-02-02T07:32:07.843Z,8.70
2023-02-02T07:34:09.806Z,9.13
2023-02-02T07:36:13.653Z,6.47
2023-02-02T07:38:16.020Z,8.15
2023-02-02T07:40:18.490Z,6.40
2023-02-02T07:42:20.620Z,6.55
2023-02-02T07:44:23.440Z,5.18
2023-02-02T07:46:25.762Z,8.68
2023-02-02T07:48:27.859Z,8.73
2023-02-02T07:50:31.128Z,5.32
2023-02-02T07:52:33.223Z,8.48
2023-02-02T07:54:35.531Z,15.52
2023-02-02T07:56:38.506Z,12.02
2023-02-02T07:58:40.835Z,8.52
2023-02-02T08:00:42.926Z,6.53
2023-02-02T08:02:44.976Z,5.55
2023-02-02T08:04:47.885Z,9.75
2023-02-02T08:06:49.916Z,5.90
2023-02-02T08:08:52.037Z,5.93
2023-02-02T08:10:54.798Z,8.18
2023-02-02T08:12:56.861Z,10.07
2023-02-02T08:14:59.284Z,10.10
2023-02-02T08:17:01.325Z,10.43
2023-02-02T08:19:04.034Z,10.75
2023-02-02T08:21:09.582Z,7.88
2023-02-02T08:23:16.042Z,15.25
2023-02-02T08:25:18.089Z,7.43
2023-02-02T08:27:20.200Z,6.95
2023-02-02T08:29:22.675Z,12.10
2023-02-02T08:31:29.576Z,11.10
2023-02-02T08:33:31.683Z,8.60
2023-02-02T08:35:33.901Z,10.20
2023-02-02T08:37:35.978Z,8.30
2023-02-02T08:39:38.090Z,8.80
2023-02-02T08:41:40.580Z,7.45
2023-02-02T08:43:43.540Z,12.98
2023-02-02T08:46:01.811Z,8.50
2023-02-02T08:48:11.986Z,9.15
2023-02-02T08:50:14.947Z,10.52
2023-02-02T08:52:17.088Z,8.45
2023-02-02T08:54:19.250Z,5.10
2023-02-02T08:56:23.654Z,7.20
2023-02-02T08:58:26.026Z,8.23
2023-02-02T09:00:28.206Z,8.93
2023-02-02T09:02:30.449Z,10.05
2023-02-02T09:04:32.486Z,3.25
2023-02-02T09:06:37.164Z,8.30
2023-02-02T09:08:39.361Z,9.68
2023-02-02T09:10:41.660Z,11.27
2023-02-02T09:12:43.679Z,5.22
2023-02-02T09:14:45.948Z,7.90
2023-02-02T09:16:48.098Z,6.57
2023-02-02T09:18:50.573Z,9.00
2023-02-02T09:20:52.618Z,12.05
2023-02-02T09:22:57.335Z,7.50
2023-02-02T09:24:59.463Z,14.57
2023-02-02T09:27:01.613Z,9.75
2023-02-02T09:29:06.346Z,10.15
2023-02-02T09:31:09.264Z,9.65
2023-02-02T09:33:11.411Z,7.10
2023-02-02T09:35:13.640Z,5.95
2023-02-02T09:37:17.208Z,4.43
2023-02-02T09:39:20.658Z,9.80
2023-02-02T09:41:28.941Z,6.78
2023-02-02T09:43:41.535Z,11.43
2023-02-02T09:45:49.778Z,8.52
2023-02-02T09:47:55.876Z,9.82
2023-02-02T09:50:02.353Z,6.82
2023-02-02T09:52:22.296Z,6.57
2023-02-02T09:54:33.431Z,9.27
2023-02-02T09:56:41.960Z,4.72
2023-02-02T09:58:51.295Z,10.52
2023-02-02T10:00:55.105Z,6.38
2023-02-02T10:03:04.720Z,7.05
2023-02-02T10:05:16.682Z,7.45
2023-02-02T10:07:24.942Z,5.78
2023-02-02T10:09:31.509Z,5.28
2023-02-02T10:11:37.285Z,7.25
2023-02-02T10:13:43.790Z,7.20
2023-02-02T10:15:56.586Z,7.45
2023-02-02T10:18:06.198Z,5.57
2023-02-02T10:20:18.961Z,6.50
2023-02-02T10:22:27.813Z,4.55
2023-02-02T10:24:32.152Z,7.55
2023-02-02T10:26:39.405Z,6.05
2023-02-02T10:28:46.049Z,4.95
2023-02-02T10:30:59.935Z,4.85
2023-02-02T10:33:06.217Z,7.25
2023-02-02T10:35:20.924Z,4.35
2023-02-02T10:37:23.994Z,5.10
2023-02-02T10:39:32.477Z,6.30
2023-02-02T10:41:46.022Z,6.10
2023-02-02T10:43:49.929Z,6.60
2023-02-02T10:45:52.453Z,3.72
2023-02-02T10:47:54.783Z,6.38
2023-02-02T10:50:05.331Z,6.00
2023-02-02T10:52:11.981Z,2.15
2023-02-02T10:54:20.224Z,5.82
2023-02-02T10:56:31.813Z,3.15
2023-02-02T10:58:41.482Z,5.20
2023-02-02T11:00:47.351Z,1.70
2023-02-02T11:02:50.862Z,6.25
2023-02-02T11:04:56.063Z,3.00
2023-02-02T11:07:01.158Z,3.65
2023-02-02T11:09:05.298Z,8.45
2023-02-02T11:11:13.542Z,7.55
2023-02-02T11:13:23.884Z,6.05
2023-02-02T11:15:30.444Z,6.45
2023-02-02T11:17:33.720Z,4.60
2023-02-02T11:19:35.987Z,4.65
2023-02-02T11:21:38.549Z,10.85
2023-02-02T11:23:41.067Z,6.22
2023-02-02T11:25:43.471Z,6.07
2023-02-02T11:27:46.968Z,9.45
2023-02-02T11:29:53.623Z,4.22
2023-02-02T11:31:56.092Z,7.38
2023-02-02T11:34:09.545Z,4.93
2023-02-02T11:36:22.112Z,5.15
2023-02-02T11:38:24.705Z,4.32
2023-02-02T11:40:28.909Z,5.05
2023-02-02T11:42:31.202Z,4.57
2023-02-02T11:44:35.944Z,4.47
2023-02-02T11:46:38.969Z,8.50
2023-02-02T11:48:50.372Z,4.60
2023-02-02T11:50:55.151Z,6.00
2023-02-02T11:52:58.241Z,4.63
2023-02-02T11:55:03.021Z,11.00
2023-02-02T11:57:09.703Z,5.45
2023-02-02T11:59:22.743Z,2.88
2023-02-02T12:01:27.817Z,5.28
2023-02-02T12:03:36.058Z,7.72
2023-02-02T12:05:38.624Z,5.72
2023-02-02T12:07:43.105Z,11.27
2023-02-02T12:09:45.385Z,4.22
2023-02-02T12:11:54.041Z,5.18
2023-02-02T12:13:59.217Z,3.55
2023-02-02T12:16:03.256Z,7.10
2023-02-02T12:18:10.009Z,5.38
2023-02-02T12:20:15.840Z,10.02
2023-02-02T12:22:24.243Z,5.13
2023-02-02T12:24:32.781Z,7.60
2023-02-02T12:26:37.458Z,6.20
2023-02-02T12:28:41.533Z,5.45
2023-02-02T12:30:50.154Z,6.28
2023-02-02T12:32:58.446Z,7.45
2023-02-02T12:35:11.408Z,5.00
2023-02-02T12:37:19.879Z,4.20
2023-02-02T12:39:34.562Z,5.82
2023-02-02T12:41:47.962Z,4.75
2023-02-02T12:43:56.058Z,9.32
2023-02-02T12:46:06.499Z,5.15
2023-02-02T12:48:11.797Z,6.65
2023-02-02T12:50:21.352Z,6.57
2023-02-02T12:52:26.913Z,7.03
2023-02-02T12:54:40.772Z,8.57
2023-02-02T12:56:52.804Z,4.30
2023-02-02T12:58:59.479Z,8.25
2023-02-02T13:01:07.917Z,9.00
2023-02-02T13:03:13.504Z,9.73
2023-02-02T13:05:20.250Z,10.15
2023-02-02T13:07:28.750Z,8.48
2023-02-02T13:09:39.342Z,3.35
2023-02-02T13:11:50.835Z,10.27
2023-02-02T13:13:52.977Z,8.43
2023-02-02T13:16:00.441Z,3.83
2023-02-02T13:18:10.999Z,7.82
2023-02-02T13:20:19.481Z,9.25
2023-02-02T13:22:28.888Z,3.55
2023-02-02T13:24:35.065Z,7.50
2023-02-02T13:26:41.272Z,8.98
2023-02-02T13:28:49.670Z,2.78
2023-02-02T13:30:53.689Z,4.35
2023-02-02T13:33:01.228Z,5.15
2023-02-02T13:35:04.559Z,7.07
2023-02-02T13:37:17.232Z,8.95
2023-02-02T13:39:25.643Z,2.88
2023-02-02T13:41:29.555Z,3.75
2023-02-02T13:43:39.799Z,5.13
2023-02-02T13:45:46.449Z,3.33
2023-02-02T13:48:01.706Z,9.57
2023-02-02T13:50:12.702Z,7.60
2023-02-02T13:52:18.441Z,4.97
2023-02-02T13:54:26.921Z,9.95
2023-02-02T13:56:37.945Z,11.38
2023-02-02T13:58:46.516Z,9.18
2023-02-02T14:00:56.116Z,5.28
2023-02-02T14:03:04.195Z,7.05
2023-02-02T14:05:07.828Z,8.35
2023-02-02T14:07:10.871Z,8.93
2023-02-02T14:09:19.046Z,7.90
2023-02-02T14:11:26.878Z,5.20
2023-02-02T14:13:41.668Z,9.18
2023-02-02T14:15:45.116Z,6.68
2023-02-02T14:17:47.965Z,6.68
2023-02-02T14:19:56.380Z,5.93
2023-02-02T14:22:05.250Z,6.05
2023-02-02T14:24:13.595Z,7.18
2023-02-02T14:26:20.489Z,5.63
2023-02-02T14:28:29.099Z,3.83
2023-02-02T14:30:35.012Z,4.75
2023-02-02T14:32:43.228Z,7.13
2023-02-02T14:34:45.683Z,5.63
2023-02-02T14:36:57.073Z,6.13
2023-02-02T14:39:08.323Z,7.97
2023-02-02T14:41:43.224Z,4.07
2023-02-02T14:43:51.229Z,5.45
2023-02-02T14:45:59.671Z,6.00
2023-02-02T14:48:11.487Z,3.30
2023-02-02T14:50:19.944Z,6.28
2023-02-02T14:52:24.132Z,7.47
2023-02-02T14:54:32.038Z,5.07
2023-02-02T14:56:40.595Z,2.85
2023-02-02T14:58:46.555Z,3.10
2023-02-02T15:00:59.324Z,2.53
2023-02-02T15:03:08.487Z,6.90
2023-02-02T15:05:22.721Z,5.30
2023-02-02T15:07:25.939Z,1.50
2023-02-02T15:09:37.145Z,8.07
2023-02-02T15:11:51.052Z,10.00
2023-02-02T15:13:59.499Z,3.95
2023-02-02T15:16:14.252Z,5.05
2023-02-02T15:18:25.793Z,4.13
2023-02-02T15:20:28.983Z,3.65
2023-02-02T15:22:38.244Z,3.35
2023-02-02T15:24:41.045Z,6.80
2023-02-02T15:26:45.733Z,4.10
2023-02-02T15:28:55.183Z,4.13
2023-02-02T15:31:04.118Z,3.42
2023-02-02T15:33:27.570Z,3.17
2023-02-02T15:35:32.448Z,3.03
2023-02-02T15:37:40.687Z,4.97
2023-02-02T15:39:49.281Z,5.50
2023-02-02T15:42:15.302Z,3.08
2023-02-02T15:44:21.120Z,1.83
2023-02-02T15:46:28.124Z,5.55
2023-02-02T15:48:32.701Z,2.97
2023-02-02T15:50:35.349Z,3.28
2023-02-02T15:52:47.549Z,2.65
2023-02-02T15:54:53.020Z,1.35
2023-02-02T15:56:57.153Z,6.75
2023-02-02T15:59:00.804Z,6.70
2023-02-02T16:01:06.959Z,1.45
2023-02-02T16:03:18.648Z,2.97
2023-02-02T16:05:26.064Z,4.53
2023-02-02T16:07:32.458Z,6.43
2023-02-02T16:09:37.099Z,1.55
2023-02-02T16:11:42.739Z,4.03
2023-02-02T16:13:54.639Z,4.80
2023-02-02T16:16:00.462Z,2.13
2023-02-02T16:18:08.089Z,3.47
2023-02-02T16:20:14.870Z,2.50
2023-02-02T16:22:21.565Z,2.17
2023-02-02T16:24:30.025Z,3.95
2023-02-02T16:26:35.176Z,4.63
2023-02-02T16:28:37.561Z,2.78
2023-02-02T16:30:40.257Z,4.22
2023-02-02T16:32:44.375Z,3.65
2023-02-02T16:34:47.336Z,3.53
2023-02-02T16:36:55.991Z,2.90
2023-02-02T16:39:01.216Z,3.15
2023-02-02T16:41:06.339Z,4.55
2023-02-02T16:43:14.607Z,2.03
2023-02-02T16:45:23.276Z,4.05
2023-02-02T16:47:26.355Z,5.68
2023-02-02T16:49:30.175Z,2.35
2023-02-02T16:51:34.124Z,7.97
2023-02-02T16:53:37.381Z,4.45
2023-02-02T16:55:50.570Z,3.88
2023-02-02T16:57:53.778Z,5.60
2023-02-02T17:00:00.516Z,1.88
2023-02-02T17:02:20.332Z,3.45
2023-02-02T17:04:27.153Z,3.92
2023-02-02T17:06:50.154Z,6.53
2023-02-02T17:08:54.224Z,2.30
2023-02-02T17:11:02.953Z,3.00
2023-02-02T17:13:27.961Z,2.38
2023-02-02T17:15:34.818Z,3.75
2023-02-02T17:17:37.679Z,4.10
2023-02-02T17:19:39.860Z,2.35
2023-02-02T17:21:42.552Z,4.15
2023-02-02T17:23:45.220Z,4.63
2023-02-02T17:25:48.203Z,3.35
2023-02-02T17:27:50.501Z,1.98
2023-02-02T17:29:54.024Z,2.58
2023-02-02T17:31:57.090Z,3.50
2023-02-02T17:33:59.309Z,3.15
2023-02-02T17:36:01.968Z,3.88
2023-02-02T17:38:04.310Z,3.45
2023-02-02T17:40:07.506Z,4.10
2023-02-02T17:42:20.683Z,5.55
2023-02-02T17:44:23.092Z,4.68
2023-02-02T17:46:28.680Z,4.93
2023-02-02T17:48:30.998Z,3.13
2023-02-02T17:50:36.726Z,4.22
2023-02-02T17:52:39.478Z,2.92
2023-02-02T17:54:41.898Z,3.55
2023-02-02T17:56:44.562Z,6.95
2023-02-02T17:58:47.024Z,6.70
2023-02-02T18:00:54.237Z,7.72
2023-02-02T18:03:02.400Z,3.55
2023-02-02T18:05:06.177Z,2.22
2023-02-02T18:07:09.766Z,6.45
2023-02-02T18:09:12.132Z,6.63
2023-02-02T18:11:15.378Z,3.17
2023-02-02T18:13:20.264Z,8.60
2023-02-02T18:15:23.111Z,6.43
2023-02-02T18:17:25.843Z,3.85
2023-02-02T18:19:28.191Z,4.25
2023-02-02T18:21:32.096Z,8.85
2023-02-02T18:23:34.333Z,6.07
2023-02-02T18:25:37.951Z,2.67
2023-02-02T18:27:40.177Z,3.25
2023-02-02T18:29:43.024Z,4.38
2023-02-02T18:31:45.346Z,3.28
2023-02-02T18:33:48.187Z,4.68
2023-02-02T18:35:50.671Z,4.78
2023-02-02T18:37:52.879Z,5.28
2023-02-02T18:39:55.097Z,2.53
2023-02-02T18:41:57.718Z,4.82
2023-02-02T18:43:59.946Z,4.00
2023-02-02T18:46:04.909Z,2.42
2023-02-02T18:48:07.396Z,3.75
2023-02-02T18:50:10.555Z,5.30
2023-02-02T18:52:12.843Z,6.07
2023-02-02T18:54:15.273Z,1.95
2023-02-02T18:56:18.150Z,7.38
2023-02-02T18:58:20.800Z,2.65
2023-02-02T19:00:23.326Z,5.05
2023-02-02T19:02:26.324Z,3.45
2023-02-02T19:04:28.509Z,2.28
2023-02-02T19:06:33.717Z,2.78
2023-02-02T19:08:36.041Z,1.75
2023-02-02T19:10:38.061Z,2.63
2023-02-02T19:12:40.318Z,3.90
2023-02-02T19:14:43.472Z,6.53
2023-02-02T19:16:47.738Z,3.40
2023-02-02T19:18:50.259Z,1.67
2023-02-02T19:20:52.807Z,4.10
2023-02-02T19:23:01.023Z,2.22
2023-02-02T19:25:13.910Z,2.45
2023-02-02T19:27:20.550Z,2.70
2023-02-02T19:29:25.189Z,2.95
2023-02-02T19:31:28.267Z,4.20
2023-02-02T19:33:39.620Z,3.60
2023-02-02T19:35:46.709Z,2.95
2023-02-02T19:37:50.345Z,4.93
2023-02-02T19:40:07.496Z,2.55
2023-02-02T19:42:12.106Z,3.22
2023-02-02T19:44:18.866Z,5.30
2023-02-02T19:46:24.218Z,6.18
2023-02-02T19:48:31.524Z,4.90
2023-02-02T19:50:41.361Z,4.75
2023-02-02T19:52:43.398Z,4.18
2023-02-02T19:54:49.139Z,1.67
2023-02-02T19:56:54.327Z,4.80
2023-02-02T19:58:56.405Z,6.28
2023-02-02T20:00:59.441Z,2.63
2023-02-02T20:03:06.949Z,5.55
2023-02-02T20:05:12.709Z,3.33
2023-02-02T20:07:15.362Z,5.90
2023-02-02T20:09:19.861Z,2.78
2023-02-02T20:11:32.366Z,6.03
2023-02-02T20:13:39.519Z,3.42
2023-02-02T20:15:41.900Z,3.55
2023-02-02T20:17:43.963Z,1.90
2023-02-02T20:19:47.247Z,4.80
2023-02-02T20:21:51.517Z,4.30
2023-02-02T20:23:53.704Z,2.97
2023-02-02T20:25:56.051Z,1.75
2023-02-02T20:27:59.824Z,6.50
2023-02-02T20:30:18.960Z,8.70
2023-02-02T20:32:26.759Z,5.43
2023-02-02T20:34:33.322Z,7.07
2023-02-02T20:36:39.303Z,4.60
2023-02-02T20:38:41.367Z,2.25
2023-02-02T20:40:43.351Z,4.40
2023-02-02T20:42:46.606Z,4.85
2023-02-02T20:44:49.228Z,8.00
2023-02-02T20:46:51.362Z,5.05
2023-02-02T20:48:53.385Z,4.18
2023-02-02T20:50:55.442Z,5.18
2023-02-02T20:52:59.846Z,5.70
2023-02-02T20:55:01.936Z,6.30
2023-02-02T20:57:04.613Z,8.57
2023-02-02T20:59:07.500Z,6.45
2023-02-02T21:01:09.718Z,5.80
2023-02-02T21:03:13.411Z,4.55
2023-02-02T21:05:15.772Z,6.57
2023-02-02T21:07:19.970Z,3.58
2023-02-02T21:09:22.206Z,4.80
2023-02-02T21:11:24.519Z,8.15
2023-02-02T21:13:26.599Z,7.63
2023-02-02T21:15:29.137Z,3.40
2023-02-02T21:17:31.269Z,4.75
2023-02-02T21:19:33.514Z,1.48
2023-02-02T21:21:35.904Z,2.45
2023-02-02T21:23:38.316Z,4.82
2023-02-02T21:25:40.531Z,3.85
2023-02-02T21:27:42.668Z,4.93
2023-02-02T21:29:44.753Z,5.57
2023-02-02T21:31:47.060Z,1.90
2023-02-02T21:33:50.814Z,4.47
2023-02-02T21:35:52.906Z,4.22
2023-02-02T21:37:58.117Z,5.85
2023-02-02T21:40:00.301Z,3.75
2023-02-02T21:42:08.573Z,2.83
2023-02-02T21:44:16.515Z,4.20
2023-02-02T21:46:21.454Z,2.08
2023-02-02T21:48:32.990Z,5.55
2023-02-02T21:50:37.867Z,4.32
2023-02-02T21:52:40.096Z,4.07
2023-02-02T21:54:42.774Z,4.43
2023-02-02T21:56:44.864Z,6.78
2023-02-02T21:58:47.931Z,6.82
2023-02-02T22:00:50.816Z,5.45
2023-02-02T22:02:54.182Z,3.67
2023-02-02T22:05:00.398Z,4.82
2023-02-02T22:07:14.009Z,4.60
2023-02-02T22:09:20.618Z,4.50
2023-02-02T22:11:30.072Z,1.92
2023-02-02T22:13:35.687Z,2.03
2023-02-02T22:15:39.040Z,3.08
2023-02-02T22:17:43.805Z,2.42
2023-02-02T22:19:46.003Z,5.00
2023-02-02T22:21:48.107Z,6.50
2023-02-02T22:23:50.266Z,3.95
2023-02-02T22:25:55.231Z,1.83
2023-02-02T22:28:00.605Z,1.35
2023-02-02T22:30:21.277Z,3.92
2023-02-02T22:32:23.346Z,3.55
2023-02-02T22:34:25.361Z,4.97
2023-02-02T22:36:27.413Z,6.05
2023-02-02T22:38:29.420Z,5.93
2023-02-02T22:40:31.949Z,3.58
2023-02-02T22:42:33.986Z,4.25
2023-02-02T22:44:36.083Z,3.58
2023-02-02T22:46:38.128Z,2.33
2023-02-02T22:48:40.133Z,2.05
2023-02-02T22:50:42.442Z,4.38
2023-02-02T22:52:44.914Z,4.70
2023-02-02T22:54:47.130Z,5.43
2023-02-02T22:56:49.209Z,3.20
2023-02-02T22:58:51.208Z,6.13
2023-02-02T23:00:53.275Z,4.15
2023-02-02T23:02:56.204Z,2.85
2023-02-02T23:04:58.313Z,1.73
2023-02-02T23:07:00.338Z,2.60
2023-02-02T23:09:02.440Z,5.95
2023-02-02T23:11:04.402Z,3.03
2023-02-02T23:13:06.748Z,6.32
2023-02-02T23:15:10.176Z,3.88
2023-02-02T23:17:12.246Z,3.30
2023-02-02T23:19:14.240Z,4.78
2023-02-02T23:21:17.334Z,4.38
2023-02-02T23:23:19.332Z,3.95
2023-02-02T23:25:22.206Z,6.45
2023-02-02T23:27:24.415Z,2.38
2023-02-02T23:29:26.626Z,3.90
2023-02-02T23:31:28.764Z,3.15
2023-02-02T23:33:31.238Z,3.20
2023-02-02T23:35:33.193Z,6.20
2023-02-02T23:37:34.971Z,6.25
2023-02-02T23:39:41.439Z,5.10
2023-02-02T23:41:43.324Z,6.15
2023-02-02T23:43:45.124Z,4.32
2023-02-02T23:45:47.015Z,3.72
2023-02-02T23:47:48.897Z,4.72
2023-02-02T23:49:51.109Z,4.10
2023-02-02T23:51:52.941Z,4.00
2023-02-02T23:53:55.851Z,1.60
2023-02-02T23:55:57.685Z,5.22
2023-02-02T23:58:00.106Z,4.13
